.
WxDataArchive / Data Records for 2006-05-29
2006-05-28 May 2006 2006-05-30

Data Records for Monday, 29 May 2006

Time	Temp	Chill	HIndex	Humid	Dewpt	 Wind 	HiWind	WindDir	Rain 	Barom 
-----	----	-----	------	-----	-----	------	------	-------	-----	----- 
00:00	76.0	76.0	77.4	75	67.5	0	0	---	0.00	29.991 
00:05	75.8	75.8	77.1	75	67.3	0	0	---	0.00	29.991 
00:10	75.4	75.4	76.5	76	67.3	0	0	---	0.00	29.991 
00:15	75.3	75.3	76.3	77	67.6	0	0	---	0.00	29.992 
00:20	75.1	75.1	76.1	77	67.4	0	0	---	0.00	29.992 
00:25	74.9	74.9	74.9	77	67.2	0	0	---	0.00	29.992 
00:30	74.7	74.7	74.7	78	67.4	0	0	---	0.00	29.993 
00:35	74.4	74.4	74.4	78	67.1	0	0	---	0.00	29.993 
00:40	74.4	74.4	74.4	79	67.4	0	0	---	0.00	29.993 
00:45	74.4	74.4	74.4	79	67.4	0	0	---	0.00	29.993 
00:50	74.2	74.2	74.2	79	67.3	0	0	---	0.00	29.993 
00:55	74.2	74.2	74.2	79	67.3	0	0	---	0.00	29.993 
01:00	74.2	74.2	74.2	79	67.3	0	0	---	0.00	29.999 
01:05	74.0	74.0	74.0	80	67.4	0	0	---	0.00	29.999 
01:10	74.0	74.0	74.0	80	67.4	0	0	---	0.00	29.999 
01:15	74.2	74.2	74.2	80	67.6	0	2	248	0.00	30.000 
01:20	74.7	74.7	74.7	79	67.7	0	2	248	0.00	30.000 
01:25	74.9	74.9	74.9	78	67.6	1	2	248	0.00	30.000 
01:30	75.3	75.3	76.3	77	67.6	1	3	248	0.00	29.997 
01:35	75.4	75.4	76.4	77	67.7	1	2	248	0.00	29.997 
01:40	75.4	75.4	76.4	77	67.7	0	2	248	0.00	29.997 
01:45	75.4	75.4	76.4	77	67.7	0	1	248	0.00	30.002 
01:50	75.3	75.3	76.3	77	67.6	0	1	248	0.00	30.002 
01:55	75.1	75.1	76.0	78	67.8	0	1	248	0.00	30.002 
02:00	74.9	74.9	74.9	78	67.6	0	1	248	0.00	30.003 
02:05	74.7	74.7	74.7	78	67.4	0	1	248	0.00	30.003 
02:10	74.7	74.7	74.7	78	67.4	0	1	248	0.00	30.003 
02:15	74.6	74.6	74.6	79	67.6	0	1	248	0.00	30.003 
02:20	74.4	74.4	74.4	79	67.4	0	0	---	0.00	30.003 
02:25	74.2	74.2	74.2	79	67.3	0	0	---	0.00	30.003 
02:30	74.0	74.0	74.0	80	67.4	0	1	248	0.00	30.005 
02:35	73.9	73.9	73.9	81	67.7	0	1	248	0.00	30.005 
02:40	73.7	73.7	73.7	81	67.5	0	0	---	0.00	30.005 
02:45	73.5	73.5	73.5	81	67.3	0	0	---	0.00	30.010 
02:50	73.3	73.3	73.3	81	67.1	0	0	---	0.00	30.010 
02:55	73.2	73.2	73.2	82	67.4	0	1	248	0.00	30.010 
03:00	73.0	73.0	73.0	82	67.2	0	1	248	0.00	30.011 
03:05	73.0	73.0	73.0	83	67.5	0	0	---	0.00	30.011 
03:10	72.8	72.8	72.8	83	67.3	0	0	---	0.00	30.011 
03:15	72.7	72.7	72.7	83	67.2	0	0	---	0.00	30.014 
03:20	72.3	72.3	72.3	84	67.2	0	0	---	0.00	30.014 
03:25	72.3	72.3	72.3	84	67.2	0	0	---	0.00	30.014 
03:30	72.1	72.1	72.1	84	67.0	0	0	---	0.00	30.013 
03:35	72.0	72.0	72.0	85	67.2	0	0	---	0.00	30.013 
03:40	71.8	71.8	71.8	85	67.0	0	0	---	0.00	30.013 
03:45	71.6	71.6	71.6	86	67.2	0	0	---	0.00	30.014 
03:50	71.5	71.5	71.5	86	67.1	0	0	---	0.00	30.014 
03:55	71.5	71.5	71.5	87	67.4	0	1	248	0.00	30.014 
04:00	71.3	71.3	71.3	87	67.2	0	0	---	0.00	30.016 
04:05	71.1	71.1	71.1	87	67.0	0	0	---	0.00	30.016 
04:10	71.1	71.1	71.1	87	67.0	0	0	---	0.00	30.016 
04:15	70.9	70.9	70.9	88	67.2	0	0	---	0.00	30.019 
04:20	70.9	70.9	70.9	88	67.2	0	1	248	0.00	30.019 
04:25	70.9	70.9	70.9	88	67.2	0	0	---	0.00	30.019 
04:30	70.8	70.8	70.8	88	67.1	0	0	---	0.00	30.017 
04:35	70.8	70.8	70.8	88	67.1	0	0	---	0.00	30.017 
04:40	70.6	70.6	70.6	88	66.9	0	0	---	0.00	30.017 
04:45	70.4	70.4	70.4	88	66.7	0	0	---	0.00	30.016 
04:50	70.1	70.1	70.1	88	66.4	0	0	---	0.00	30.016 
04:55	69.9	69.9	69.9	89	66.5	0	0	---	0.00	30.016 
05:00	69.8	69.8	69.8	89	66.4	0	0	---	0.00	30.019 
05:05	69.6	69.6	69.6	90	66.5	0	0	---	0.00	30.019 
05:10	69.3	69.3	69.3	90	66.2	0	0	---	0.00	30.019 
05:15	69.1	69.1	69.1	90	66.0	0	0	---	0.00	30.023 
05:20	68.9	68.9	68.9	90	65.8	0	0	---	0.00	30.023 
05:25	68.9	68.9	68.9	91	66.2	0	0	---	0.00	30.023 
05:30	68.8	68.8	68.8	91	66.1	0	0	---	0.00	30.024 
05:35	68.6	68.6	68.6	91	65.9	0	0	---	0.00	30.024 
05:40	68.4	68.4	68.4	92	66.0	0	0	---	0.00	30.024 
05:45	68.4	68.4	68.4	92	66.0	0	0	---	0.00	30.026 
05:50	68.3	68.3	68.3	92	65.9	0	0	---	0.00	30.026 
05:55	68.1	68.1	68.1	92	65.7	0	0	---	0.00	30.026 
06:00	67.9	67.9	67.9	92	65.5	0	0	---	0.00	30.028 
06:05	67.9	67.9	67.9	92	65.5	0	0	---	0.00	30.028 
06:10	67.9	67.9	67.9	92	65.5	0	0	---	0.00	30.028 
06:15	67.8	67.8	67.8	93	65.7	0	0	---	0.00	30.035 
06:20	67.6	67.6	67.6	93	65.5	0	0	---	0.00	30.035 
06:25	67.6	67.6	67.6	93	65.5	0	0	---	0.00	30.035 
06:30	67.6	67.6	67.6	93	65.5	0	0	---	0.00	30.037 
06:35	67.4	67.4	67.4	93	65.3	0	0	---	0.00	30.037 
06:40	67.4	67.4	67.4	93	65.3	0	0	---	0.00	30.037 
06:45	67.4	67.4	67.4	93	65.3	0	0	---	0.00	30.043 
06:50	67.6	67.6	67.6	94	65.8	0	0	---	0.00	30.043 
06:55	67.6	67.6	67.6	94	65.8	0	0	---	0.00	30.043 
07:00	67.8	67.8	67.8	94	66.0	0	0	---	0.00	30.048 
07:05	67.9	67.9	67.9	94	66.1	0	0	---	0.00	30.048 
07:10	68.1	68.1	68.1	94	66.3	0	0	---	0.00	30.048 
07:15	68.4	68.4	68.4	94	66.6	0	0	---	0.00	30.056 
07:20	68.8	68.8	68.8	95	67.3	0	0	---	0.00	30.056 
07:25	69.3	69.3	69.3	95	67.8	0	0	---	0.00	30.056 
07:30	69.8	69.8	69.8	95	68.3	0	0	---	0.00	30.058 
07:35	70.3	70.3	70.3	94	68.5	0	1	248	0.00	30.058 
07:40	70.8	70.8	70.8	94	69.0	0	1	248	0.00	30.058 
07:45	71.5	71.5	71.5	92	69.0	0	1	248	0.00	30.060 
07:50	72.3	72.3	72.3	89	68.9	0	1	248	0.00	30.060 
07:55	73.2	73.2	73.2	86	68.7	0	1	248	0.00	30.060 
08:00	74.2	74.2	74.2	83	68.7	0	2	248	0.00	30.065 
08:05	74.9	74.9	74.9	81	68.7	1	3	248	0.00	30.065 
08:10	75.6	75.6	76.5	79	68.6	1	4	248	0.00	30.065 
08:15	76.1	76.1	77.3	78	68.7	1	4	248	0.00	30.068 
08:20	76.7	76.7	78.2	78	69.3	0	1	270	0.00	30.068 
08:25	77.4	77.4	79.3	77	69.6	0	3	248	0.00	30.068 
08:30	77.7	77.7	79.7	75	69.1	1	3	248	0.00	30.068 
08:35	78.1	78.1	80.3	74	69.1	1	2	248	0.00	30.068 
08:40	78.5	78.5	80.9	73	69.1	1	5	248	0.00	30.068 
08:45	78.8	78.8	81.3	73	69.4	1	3	248	0.00	30.067 
08:50	79.2	79.2	81.8	71	69.0	1	3	248	0.00	30.067 
08:55	79.4	79.4	82.1	71	69.2	1	3	248	0.00	30.067 
09:00	79.6	79.6	82.3	70	68.9	1	2	248	0.00	30.068 
09:05	79.9	79.9	82.7	69	68.8	1	3	248	0.00	30.068 
09:10	80.3	80.3	83.3	69	69.2	1	4	248	0.00	30.068 
09:15	80.9	80.9	84.3	69	69.8	1	3	248	0.00	30.071 
09:20	81.2	81.2	84.5	67	69.2	1	3	248	0.00	30.071 
09:25	81.4	81.4	84.8	67	69.4	1	2	270	0.00	30.071 
09:30	81.4	81.4	84.6	66	68.9	1	3	270	0.00	30.069 
09:35	81.6	81.6	85.3	68	70.0	1	3	270	0.00	30.069 
09:40	82.0	82.0	85.4	65	69.0	1	3	270	0.00	30.069 
09:45	82.4	82.4	86.3	66	69.9	1	2	248	0.00	30.071 
09:50	82.6	82.6	86.4	65	69.6	1	3	248	0.00	30.071 
09:55	83.0	83.0	86.9	64	69.5	1	3	248	0.00	30.071 
10:00	83.4	83.4	87.0	62	69.0	1	2	248	0.00	30.072 
10:05	83.8	83.8	88.3	64	70.3	0	1	270	0.00	30.072 
10:10	84.1	84.1	87.7	60	68.7	1	3	248	0.00	30.072 
10:15	84.3	84.3	88.3	61	69.4	1	2	292	0.00	30.072 
10:20	84.5	84.5	88.7	61	69.5	1	4	248	0.00	30.072 
10:25	84.9	84.9	89.7	62	70.4	1	3	248	0.00	30.072 
10:30	85.1	85.1	89.1	59	69.1	1	3	315	0.00	30.070 
10:35	85.3	85.3	89.2	58	68.8	1	2	248	0.00	30.070 
10:40	85.5	85.5	89.5	58	69.0	1	2	248	0.00	30.070 
10:45	85.9	85.9	89.9	57	68.9	2	4	248	0.00	30.068 
10:50	86.3	86.3	91.3	59	70.2	1	3	248	0.00	30.068 
10:55	86.5	86.5	90.3	55	68.4	2	4	248	0.00	30.068 
11:00	86.7	86.7	90.6	55	68.6	1	4	248	0.00	30.067 
11:05	87.2	87.2	92.3	57	70.1	1	3	248	0.00	30.067 
11:10	87.4	87.4	92.2	56	69.7	1	4	338	0.00	30.067 
11:15	87.6	87.6	90.7	51	67.2	2	3	248	0.00	30.068 
11:20	87.6	87.6	90.0	49	66.0	1	4	248	0.00	30.068 
11:25	88.0	88.0	91.0	50	67.0	1	4	248	0.00	30.068 
11:30	88.2	88.2	91.0	49	66.6	2	4	270	0.00	30.063 
11:35	88.2	88.2	90.3	47	65.4	1	4	270	0.00	30.063 
11:40	88.2	88.2	90.7	48	66.0	2	4	248	0.00	30.063 
11:45	88.4	88.4	90.6	47	65.6	2	7	248	0.00	30.058 
11:50	88.6	88.6	91.0	47	65.7	2	4	270	0.00	30.058 
11:55	88.6	88.6	92.1	50	67.5	1	2	292	0.00	30.058 
12:00	88.6	88.6	91.3	48	66.4	1	3	248	0.00	30.064 
12:05	88.8	88.8	92.4	50	67.7	1	3	292	0.00	30.064 
12:10	88.6	88.6	91.7	49	67.0	1	3	315	0.00	30.064 
12:15	88.8	88.8	91.3	47	65.9	1	2	292	0.00	30.059 
12:20	89.0	89.0	92.0	48	66.7	1	3	292	0.00	30.059 
12:25	89.3	89.3	90.6	43	63.8	1	4	270	0.00	30.059 
12:30	89.5	89.5	91.7	45	65.3	1	3	248	0.00	30.058 
12:35	89.5	89.5	92.1	46	65.9	2	3	315	0.00	30.058 
12:40	89.5	89.5	92.1	46	65.9	1	3	270	0.00	30.058 
12:45	89.7	89.7	92.8	47	66.7	1	5	270	0.00	30.059 
12:50	89.7	89.7	92.4	46	66.1	1	3	248	0.00	30.059 
12:55	89.9	89.9	92.3	45	65.7	1	5	90	0.00	30.059 
13:00	89.9	89.9	91.6	43	64.4	2	6	270	0.00	30.054 
13:05	89.9	89.9	90.9	41	63.0	2	4	248	0.00	30.054 
13:10	90.3	90.3	91.5	41	63.4	1	2	270	0.00	30.054 
13:15	90.7	90.7	93.3	44	65.7	1	3	248	0.00	30.050 
13:20	91.0	91.0	92.6	41	64.0	1	3	112	0.00	30.050 
13:25	91.0	91.0	95.1	47	67.9	1	3	270	0.00	30.050 
13:30	91.2	91.2	92.9	41	64.2	1	3	90	0.00	30.046 
13:35	91.2	91.2	92.9	41	64.2	2	4	112	0.00	30.046 
13:40	91.2	91.2	93.3	42	64.9	2	4	90	0.00	30.046 
13:45	91.2	91.2	94.1	44	66.2	2	5	248	0.00	30.042 
13:50	91.4	91.4	93.2	41	64.3	2	5	90	0.00	30.042 
13:55	91.4	91.4	93.6	42	65.0	1	4	90	0.00	30.042 
14:00	91.2	91.2	93.7	43	65.5	2	4	90	0.00	30.038 
14:05	91.0	91.0	93.0	42	64.7	2	5	270	0.00	30.038 
14:10	91.2	91.2	93.7	43	65.5	1	3	112	0.00	30.038 
14:15	91.4	91.4	92.8	40	63.6	1	4	248	0.00	30.038 
14:20	91.6	91.6	92.7	39	63.1	1	4	270	0.00	30.038 
14:25	91.6	91.6	93.1	40	63.8	2	7	90	0.00	30.038 
14:30	91.2	91.2	92.5	40	63.5	2	4	90	0.00	30.035 
14:35	91.2	91.2	92.1	39	62.7	1	4	90	0.00	30.035 
14:40	91.4	91.4	93.6	42	65.0	2	5	90	0.00	30.035 
14:45	91.2	91.2	92.5	40	63.5	2	4	90	0.00	30.029 
14:50	91.2	91.2	93.3	42	64.9	1	3	90	0.00	30.029 
14:55	91.4	91.4	94.0	43	65.7	2	5	90	0.00	30.029 
15:00	91.8	91.8	93.4	40	64.0	1	4	270	0.00	30.021 
15:05	91.6	91.6	94.4	43	65.9	1	3	90	0.00	30.021 
15:10	92.1	92.1	94.8	42	65.7	1	5	225	0.00	30.021 
15:15	92.1	92.1	94.4	41	65.0	2	5	90	0.00	30.021 
15:20	92.1	92.1	95.7	44	67.0	1	3	135	0.00	30.021 
15:25	92.3	92.3	93.8	39	63.7	1	4	248	0.00	30.021 
15:30	92.9	92.9	96.7	43	67.1	1	3	202	0.00	30.011 
15:35	92.9	92.9	96.2	42	66.4	2	4	68	0.00	30.011 
15:40	92.9	92.9	96.2	42	66.4	1	3	90	0.00	30.011 
15:45	92.9	92.9	94.4	38	63.5	1	3	158	0.00	30.005 
15:50	92.9	92.9	95.7	41	65.7	1	4	90	0.00	30.005 
15:55	92.9	92.9	94.8	39	64.2	2	4	90	0.00	30.005 
16:00	92.3	92.3	95.1	42	65.8	3	7	112	0.00	30.005 
16:05	92.5	92.5	95.0	41	65.3	1	2	225	0.00	30.005 
16:10	92.5	92.5	94.6	40	64.6	2	5	90	0.00	30.005 
16:15	92.9	92.9	94.0	37	62.7	1	3	90	0.00	30.005 
16:20	92.9	92.9	94.8	39	64.2	1	4	248	0.00	30.005 
16:25	92.9	92.9	93.6	36	62.0	1	3	248	0.00	30.005 
16:30	93.2	93.2	95.8	40	65.2	1	3	248	0.00	29.996 
16:35	92.9	92.9	94.0	37	62.7	2	4	270	0.00	29.996 
16:40	92.9	92.9	94.8	39	64.2	2	5	270	0.00	29.996 
16:45	92.9	92.9	94.4	38	63.5	2	3	270	0.00	29.993 
16:50	93.2	93.2	95.3	39	64.5	1	4	270	0.00	29.993 
16:55	92.9	92.9	94.4	38	63.5	1	4	248	0.00	29.993 
17:00	92.5	92.5	93.0	36	61.6	1	3	135	0.00	29.990 
17:05	92.3	92.3	93.4	38	63.0	0	3	248	0.00	29.990 
17:10	92.3	92.3	93.8	39	63.7	1	3	248	0.00	29.990 
17:15	92.3	92.3	93.8	39	63.7	1	3	248	0.00	29.990 
17:20	92.5	92.5	94.2	39	63.9	1	2	292	0.00	29.990 
17:25	92.5	92.5	93.8	38	63.1	1	4	270	0.00	29.990 
17:30	92.7	92.7	94.1	38	63.3	1	2	270	0.00	29.988 
17:35	92.9	92.9	93.6	36	62.0	1	2	270	0.00	29.988 
17:40	92.7	92.7	94.1	38	63.3	0	1	270	0.00	29.988 
17:45	92.1	92.1	93.9	40	64.3	0	2	270	0.00	29.981 
17:50	91.2	91.2	92.9	41	64.2	1	3	270	0.00	29.981 
17:55	89.9	89.9	90.5	40	62.3	2	5	248	0.00	29.981 
18:00	88.8	88.8	89.9	43	63.4	1	3	270	0.00	29.990 
18:05	88.2	88.2	88.4	41	61.5	1	3	248	0.00	29.990 
18:10	87.8	87.8	88.2	42	61.8	1	3	270	0.00	29.990 
18:15	87.8	87.8	88.5	43	62.5	0	2	270	0.00	29.985 
18:20	87.6	87.6	88.8	45	63.6	0	1	270	0.00	29.985 
18:25	87.6	87.6	89.4	47	64.8	2	9	90	0.00	29.985 
18:30	87.0	87.0	89.4	50	66.1	2	4	90	0.00	29.984 
18:35	86.1	86.1	88.0	50	65.3	1	3	90	0.00	29.984 
18:40	85.7	85.7	87.4	50	64.9	2	4	90	0.00	29.984 
18:45	85.1	85.1	86.6	50	64.3	1	7	338	0.00	29.981 
18:50	84.7	84.7	85.6	48	62.8	1	3	248	0.00	29.981 
18:55	84.7	84.7	85.2	46	61.6	1	3	248	0.00	29.981 
19:00	85.1	85.1	85.0	43	60.1	0	2	270	0.00	29.976 
19:05	85.3	85.3	85.2	43	60.2	0	2	270	0.00	29.976 
19:10	85.5	85.5	85.1	41	59.1	1	2	270	0.00	29.976 
19:15	85.7	85.7	85.1	40	58.6	1	3	112	0.00	29.980 
19:20	85.7	85.7	85.5	42	59.9	1	3	90	0.00	29.980 
19:25	85.5	85.5	85.9	45	61.7	2	5	90	0.00	29.980 
19:30	85.1	85.1	85.9	47	62.6	2	4	112	0.00	29.980 
19:35	84.9	84.9	86.1	49	63.6	1	4	90	0.00	29.980 
19:40	84.3	84.3	85.5	50	63.6	1	3	270	0.00	29.980 
19:45	84.1	84.1	85.0	49	62.8	1	3	270	0.00	29.987 
19:50	84.1	84.1	85.3	50	63.4	3	6	270	0.00	29.987 
19:55	84.0	84.0	85.6	52	64.4	4	11	270	0.00	29.987 
20:00	83.8	83.8	85.5	53	64.8	2	6	270	0.00	29.993 
20:05	83.2	83.2	84.7	53	64.3	2	5	270	0.00	29.993 
20:10	82.8	82.8	84.2	53	63.9	2	5	270	0.00	29.993 
20:15	82.4	82.4	83.7	53	63.5	1	3	248	0.00	29.994 
20:20	82.0	82.0	83.2	53	63.2	1	2	270	0.00	29.994 
20:25	81.6	81.6	82.6	52	62.2	1	2	248	0.00	29.994 
20:30	81.4	81.4	82.7	54	63.1	0	3	248	0.00	29.996 
20:35	81.2	81.2	82.6	55	63.5	0	2	248	0.00	29.996 
20:40	80.9	80.9	82.3	55	63.2	0	2	248	0.00	29.996 
20:45	80.7	80.7	82.3	57	64.0	0	2	180	0.00	29.995 
20:50	80.7	80.7	82.2	56	63.5	1	2	180	0.00	29.995 
20:55	80.7	80.7	82.0	55	63.0	0	1	180	0.00	29.995 
21:00	80.7	80.7	82.2	56	63.5	1	2	180	0.00	29.991 
21:05	80.5	80.5	81.7	54	62.3	0	2	180	0.00	29.991 
21:10	80.5	80.5	81.8	55	62.8	0	1	180	0.00	29.991 
21:15	80.3	80.3	81.5	54	62.1	0	1	180	0.00	29.984 
21:20	80.3	80.3	81.6	55	62.6	1	2	180	0.00	29.984 
21:25	80.1	80.1	81.5	56	63.0	1	2	135	0.00	29.984 
21:30	79.9	79.9	81.3	56	62.8	0	1	135	0.00	29.987 
21:35	79.8	79.8	81.2	56	62.7	1	2	135	0.00	29.987 
21:40	79.8	79.8	81.2	56	62.7	0	2	135	0.00	29.987 
21:45	79.6	79.6	81.1	57	63.0	0	1	135	0.00	29.988 
21:50	79.4	79.4	80.9	57	62.8	0	1	135	0.00	29.988 
21:55	79.2	79.2	80.7	58	63.1	0	1	135	0.00	29.988 
22:00	79.2	79.2	80.7	58	63.1	0	1	135	0.00	29.992 
22:05	78.8	78.8	80.4	59	63.2	0	1	135	0.00	29.992 
22:10	78.6	78.6	80.3	60	63.5	0	0	---	0.00	29.992 
22:15	78.3	78.3	80.0	60	63.2	0	1	135	0.00	29.997 
22:20	78.3	78.3	80.0	60	63.2	0	1	135	0.00	29.997 
22:25	78.1	78.1	79.9	62	64.0	0	0	---	0.00	29.997 
22:30	77.7	77.7	79.4	62	63.6	0	0	---	0.00	30.006 
22:35	77.4	77.4	79.2	63	63.8	0	0	---	0.00	30.006 
22:40	77.2	77.2	79.0	64	64.1	0	0	---	0.00	30.006 
22:45	76.8	76.8	78.6	65	64.1	0	0	---	0.00	30.008 
22:50	76.5	76.5	78.3	65	63.8	0	0	---	0.00	30.008 
22:55	76.1	76.1	77.9	66	63.9	0	0	---	0.00	30.008 
23:00	76.0	76.0	77.8	67	64.2	0	0	---	0.00	30.010 
23:05	75.6	75.6	77.4	68	64.3	0	0	---	0.00	30.010 
23:10	75.4	75.4	77.2	68	64.1	0	0	---	0.00	30.010 
23:15	75.1	75.1	76.9	69	64.2	0	0	---	0.00	30.012 
23:20	74.9	74.9	74.9	70	64.4	0	0	---	0.00	30.012 
23:25	74.9	74.9	74.9	70	64.4	0	0	---	0.00	30.012 
23:30	74.7	74.7	74.7	70	64.2	0	0	---	0.00	30.013 
23:35	74.6	74.6	74.6	70	64.2	0	0	---	0.00	30.013 
23:40	74.4	74.4	74.4	72	64.8	0	0	---	0.00	30.013 
23:45	74.2	74.2	74.2	72	64.6	0	0	---	0.00	30.012 
23:50	74.0	74.0	74.0	73	64.8	0	0	---	0.00	30.012 
23:55	73.7	73.7	73.7	73	64.5	0	2	135	0.00	30.012 

CoCoRaHS
IN-AL-39
A2 Web Hosting
Creative Commons License
GoDaddy
Look for:

loaded 2017-10-20 19:57:21 • last modified 2010-11-18 10:43:29
Privacy PolicyDisclaimer
• wx.awcolley.com is powered by PmWiki v.2002016 •
• all content (unless otherwise noted) © 2017 A W Colley